Tiempo atmosférico en la estación meteorológica de Puerto De San Isidro, León (1510 m.)



Fecha
DESCASC
Temp. máxima en grados centígrados (hora)
DESCASC
Temp. mínima en grados centígrados (hora)
DESCASC
Temp. media en grados centígrados
DESCASC
Racha de viento máxima en m/sg (hora)
DESCASC
Velocidad máxima media en intervalos de 10 minutos(hora)
DESCASC
Precipitaciones diarias en mm
DESCASC
Precipitaciones de 00:00 a 06:00 en mm
DESCASC
Precipitaciones de 06:00 a 12:00 en mm
DESCASC
Precipitaciones de 12:00 a 18:00 en mm
DESCASC
Precipitaciones de 18:00 a 24:00 en mm
DESCASC
13-10-2019 15 (00:40) 8.5 (11:30) 11.8 20.56 (06:50) 8.89 (00:50) 1.8 0.2 0 1.6 0
12-10-2019 18.1 (18:10) 11.9 (09:00) 15 24.72 (21:50) 8.89 (23:30) 2.4 0 0 0 2.4
11-10-2019 20.1 (15:50) 5.5 (03:10) 12.8 11.11 (12:30) 7.5 (12:00) 0 0 0 0 0
10-10-2019 17.9 (14:30) 0.6 (00:00) 9.2 10.28 (23:59) 7.22 (23:50) 0 0 0 0 0
09-10-2019 10.3 (16:10) 3.1 (00:00) 6.7 10.28 (16:40) 7.22 (16:30) 0 0 0 0 0
08-10-2019 19.3 (12:50) 6 (00:00) 12.6 10.56 (15:50) 8.33 (21:10) 0 0 0 0 0
07-10-2019 19 (15:10) 7.5 (00:00) 13.3 8.61 (01:30) 6.11 (00:40) 0 0 0 0 0
06-10-2019 13.6 (16:40) 6.2 (00:00) 9.9 9.72 (13:50) 7.22 (23:20) 0 0 0 0 0
05-10-2019 19.8 (16:00) 3.6 (00:00) 11.7 10.83 (18:50) 7.78 (16:50) 0.2 0 0.2 0 0
04-10-2019 17.7 (14:30) 6.1 (00:00) 11.9 10 (14:20) 7.22 (15:20) 0 0 0 0 0
03-10-2019 18 (16:20) 2.3 (00:00) 10.1 11.11 (13:00) 7.5 (12:50) 0.2 0 0.2 0 0
02-10-2019 11.5 (17:10) 4.1 (00:00) 7.8 20.56 (03:30) 10.83 (04:20) 0.2 0 0.2 0 0
01-10-2019 16.1 (15:30) 6.5 (00:00) 11.3 13.33 (23:20) 8.33 (23:40) 0 0 0 0 0
30-09-2019 21.1 (15:50) 6.5 (00:00) 13.8 10.56 (13:00) 6.11 (13:00) 0 0 0 0 0
29-09-2019 20.4 (14:50) 5.2 (00:00) 12.8 10.28 (14:20) 5.83 (11:30) 0 0 0 0 0
28-09-2019 20.4 (17:10) 3.6 (00:00) 12 10.56 (15:20) 6.67 (15:00) 0 0 0 0 0
27-09-2019 17.1 (12:50) 4.4 (00:00) 10.8 8.89 (16:40) 7.22 (16:40) 0 0 0 0 0
26-09-2019 19.3 (16:10) 4.5 (00:00) 11.9 8.89 (14:40) 5.56 (14:40) 0 0 0 0 0
25-09-2019 15.2 (16:10) 6.8 (00:00) 11 13.89 (05:30) 7.22 (01:50) 0 0 0 0 0
24-09-2019 16.5 (16:40) 8.4 (00:00) 12.4 13.89 (03:50) 7.5 (06:50) 2.2 1 1.2 0 0
23-09-2019 13.6 (14:50) 2.3 (00:00) 8 15 (12:30) 8.33 (15:50) 3 0.2 0 0.6 2.2
22-09-2019 12.9 (00:30) 2.6 (00:00) 7.7 13.33 (00:20) 6.11 (00:20) 4.8 3.6 0 0 1.2
21-09-2019 13.6 (17:40) 11.2 (00:00) 12.4 17.78 (14:00) 8.33 (19:40) 12 0.2 0.2 0.8 10.8
20-09-2019 19.4 (16:40) 7.8 (00:00) 13.6 13.61 (17:10) 7.5 (17:20) 0 0 0 0 0
19-09-2019 19.2 (14:50) 6.5 (00:00) 12.9 6.94 (15:20) 5 (16:10) 0 0 0 0 0
18-09-2019 18.4 (14:20) 8.8 (00:00) 13.6 11.11 (01:20) 5.83 (01:20) 0.6 0 0.6 0 0
17-09-2019 20.6 (14:50) 10.3 (00:00) 15.5 8.89 (13:20) 5.83 (20:40) 2.2 0 0 0 2.2
16-09-2019 21.4 (16:00) 7.2 (00:00) 14.3 17.78 (20:00) 8.06 (20:10) 17.2 0 0 3.4 13.8
15-09-2019 21.5 (16:00) 9.4 (00:00) 15.4 10.28 (16:20) 5.83 (16:30) 0 0 0 0 0

Gráficas

Temp. máximas Temp. mínimas Temp. medias Precipitaciones Rachas de viento máximas Velocidades máximas media en intervalos de 10 minutos

Datos horarios

Fecha y hora oficial Temperatura (ºC) Velocidad del viento (km/h) Dirección del viento Racha (km/h) Dirección de racha Precipitación (mm) Presión (hPa) Tendencia (hPa) Humedad (%)
2019-10-14 23:00:00 2.1 13 Oeste 25 Oeste 0 845.9 1.5 87
2019-10-14 22:00:00 2.3 8 Noroeste 33 Oeste 0 845.3 1.8 87
2019-10-14 21:00:00 3.1 22 Oeste 39 Oeste 0.2 845.1 2.1 83
2019-10-14 20:00:00 3.7 19 Oeste 34 Oeste 0.2 844.4 1.8 85
2019-10-14 19:00:00 5 15 Oeste 27 Oeste 0 843.5 1.5 82
2019-10-14 18:00:00 5.8 12 Oeste 25 Oeste 0 843 0.5 71
2019-10-14 17:00:00 6.8 11 Oeste 26 Oeste 0 842.6 -0.2 67
2019-10-14 16:00:00 6.8 13 Sur 36 Sur 0.2 842 -0.5 76
2019-10-14 15:00:00 6.2 14 Sur 30 Sur 1.6 842.5 0.6 77
2019-10-14 14:00:00 6.1 14 Sur 31 Sur 2 842.8 1 78
2019-10-14 13:00:00 7.5 10 Sur 42 Oeste 0 842.5 1.2 73
2019-10-14 12:00:00 7.2 25 Sudoeste 45 Sudoeste 0 841.9 1.4 71
2019-10-14 11:00:00 6.1 16 Sur 42 Sur 2.8 841.8 1.5 76
2019-10-14 10:00:00 6.6 10 Sudoeste 41 Oeste 4.8 841.3 0.4 76
2019-10-14 09:00:00 8.9 21 Sur 54 Sudoeste 2.8 840.5 -1.2 77
2019-10-14 08:00:00 9.9 18 Sur 74 Sudeste 3.8 840.3 -2.1 76
2019-10-14 07:00:00 10.7 19 Sur 65 Sur 2.2 840.9 -2.1 75
2019-10-14 06:00:00 11.2 19 Sur 54 Sur 0.4 841.7 -1.4 74
2019-10-14 05:00:00 11.6 22 Sur 73 Sur 0 842.4 -1.5 68
2019-10-14 04:00:00 11.7 24 Sur 67 Sur 0 843 -1.5 67
2019-10-14 03:00:00 11.6 25 Sur 74 Sudeste 0 843.1 -1.8 65
2019-10-14 02:00:00 11.2 19 Sur 61 Sur 0 843.9 -1.8 67
2019-10-14 01:00:00 11.5 23 Sur 74 Sur 0 844.5 -1 62
2019-10-14 00:00:00 11.2 25 Sur 59 Sur 0 844.9 -1 64
2019-10-13 23:00:00 11.5 25 Sur 60 Sur 0 845.7 -0.3 67
2019-10-13 22:00:00 11.7 19 Sur 65 Sur 0 845.5 -0.6 67
2019-10-13 21:00:00 12.2 20 Sur 56 Sur 0 845.9 -0.3 67
2019-10-13 20:00:00 12.3 17 Sur 57 Sur 0 846 -0.5 68
2019-10-13 19:00:00 12.4 18 Sur 54 Sudoeste 0 846.1 -0.5 72
2019-10-13 18:00:00 12.1 16 Sur 55 Sudoeste 0 846.2 -0.9 72
2019-10-13 17:00:00 11.3 19 Sur 44 Sudoeste 0.2 846.5 -1.2 80
2019-10-13 16:00:00 9.8 19 Sudeste 37 Este 0.6 846.6 -0.9 90
2019-10-13 15:00:00 9.9 6 Sudeste 33 Sudeste 0.2 847.1 -0.2 88
2019-10-13 14:00:00 9.3 7 Sudeste 30 Este 0.6 847.7 0.7 89
2019-10-13 13:00:00 9 6 Sudeste 32 Este 0 847.5 1.1 89
2019-10-13 12:00:00 8.7 12 Sudeste 26 Este 0 847.3 1.4 90
2019-10-13 11:00:00 9.1 6 Este 34 Este 0 847 1.4 84
2019-10-13 10:00:00 8.9 9 Sudeste 43 Sudeste 0 846.4 1.8 83
2019-10-13 09:00:00 8.8 16 Sudeste 41 Sudeste 0 845.9 1.2 80
2019-10-13 08:00:00 9.8 22 Sudeste 65 Sudoeste 0 845.6 0.8 70
2019-10-13 07:00:00 10.6 19 Sur 74 Sur 0 844.6 -0.5 63
2019-10-13 06:00:00 11.5 24 Sur 64 Sur 0 844.7 -1.1 62
2019-10-13 05:00:00 11.3 23 Sur 62 Sur 0 844.8 -1.4 68
2019-10-13 04:00:00 12 21 Sur 56 Sur 0 845.1 -1.4 66
2019-10-13 03:00:00 13 21 Sur 59 Sur 0.2 845.8 -0.7 62
2019-10-13 02:00:00 13.8 24 Sur 71 Sudeste 0 846.2 -0.3 59
2019-10-13 01:00:00 14.7 31 Sur 72 Sur 0 846.5 -0.1 55
2019-10-13 00:00:00 14.7 24 Sur 66 Sur 0.2 846.5 -0.4 53
2019-10-12 23:00:00 15.1 22 Sur 60 Sudoeste 0 846.5 -0.4 57
2019-10-12 22:00:00 14.3 14 Sur 89 Oeste 2 846.6 -0.2 61
2019-10-12 21:00:00 16.7 18 Sur 48 Sur 0 846.9 -0.1 47
2019-10-12 20:00:00 16.8 11 Sur 58 Sur 0 846.9 -0.3 46
2019-10-12 19:00:00 16.5 18 Sur 54 Sudeste 0.2 846.8 -0.9 49
2019-10-12 18:00:00 18 18 Sur 54 Sur 0 847 -1.2 43
2019-10-12 17:00:00 17.4 20 Sur 45 Sur 0 847.2 -1.5 47
2019-10-12 16:00:00 17.2 16 Sudoeste 59 Sur 0 847.7 -1.4 51
2019-10-12 15:00:00 16.6 22 Sur 57 Sudeste 0 848.2 -1 52
2019-10-12 14:00:00 15.9 20 Sur 62 Sur 0 848.7 -0.6 54
2019-10-12 13:00:00 16.8 22 Sur 46 Sur 0 849.1 -0.2 49
2019-10-12 12:00:00 15.3 17 Este 35 Este 0 849.2 0.4 61
2019-10-12 11:00:00 13.2 10 Este 31 Este 0 849.3 0.7 69
2019-10-12 10:00:00 12.1 18 Este 27 Este 0 849.3 0.6 73
2019-10-12 09:00:00 12 16 Sudeste 49 Sur 0 848.8 -0.1 68
2019-10-12 08:00:00 12.6 17 Sur 40 Sur 0 848.6 -0.5 64
2019-10-12 07:00:00 13.1 14 Sudeste 35 Sudeste 0 848.7 -0.7 65
2019-10-12 06:00:00 14.1 12 Sudoeste 39 Sur 0 848.9 -0.9 59
2019-10-12 05:00:00 14.5 13 Sur 39 Sudoeste 0 849.1 -1.3 58
2019-10-12 04:00:00 14.6 16 Sudoeste 46 Sur 0 849.4 -1.6 60
2019-10-12 03:00:00 14.6 10 Sudoeste 31 Sur 0 849.8 -1.3 61
2019-10-12 02:00:00 15.2 9 Sudoeste 25 Sudoeste 0 850.4 -0.7 59
2019-10-12 01:00:00 15.9 8 Sur 24 Sudeste 0 851 0.1 54
2019-10-12 00:00:00 15.6 4 Oeste 20 Sudoeste 0 851.1 0 55
2019-10-11 23:00:00 14.9 5 Sudoeste 14 Sur 0 851.1 -0.1 55
2019-10-11 22:00:00 14.7 4 Sudoeste 17 Sudoeste 0 850.9 -0.5 55
2019-10-11 21:00:00 15.5 6 Sudoeste 22 Sur 0 851.1 -0.5 53
2019-10-11 20:00:00 16.9 7 Sudoeste 31 Sudoeste 0 851.2 -0.6 48
2019-10-11 19:00:00 17.7 10 Sudeste 32 Sur 0 851.4 -0.5 46
2019-10-11 18:00:00 18.6 13 Sur 32 Sur 0 851.6 -0.7 40
2019-10-11 17:00:00 19.6 9 Sudoeste 35 Oeste 0 851.8 -1.2 38
2019-10-11 16:00:00 20.1 8 Sudoeste 36 Sur 0 851.9 -1.5 37
2019-10-11 15:00:00 19.8 11 Sudoeste 35 Sudeste 0 852.3 -1.4 37
2019-10-11 14:00:00 19 9 Sur 30 Sudeste 0 853 -0.9 39
2019-10-11 13:00:00 17.8 12 Sudeste 40 Sudeste 0 853.4 -0.3 40
2019-10-11 12:00:00 15 27 Este 37 Este 0 853.7 0.4 46
2019-10-11 11:00:00 13.9 21 Este 31 Este 0 853.9 0.7 50
2019-10-11 10:00:00 11.1 4 Noroeste 10 Nordeste 0 853.7 0.7 59
2019-10-11 09:00:00 7.6 3 Sudeste 10 Este 0 853.3 0.1 68
2019-10-11 08:00:00 7.3 5 Sudeste 17 Este 0 853.2 0 69
2019-10-11 07:00:00 7.7 12 Este 20 Este 0 853 -0.6 69
2019-10-11 06:00:00 7.3 7 Este 14 Este 0 853.2 -0.8 70
2019-10-11 05:00:00 7.7 8 Este 15 Nordeste 0 853.2 -0.8 69
2019-10-11 04:00:00 6.9 6 Este 10 Nordeste 0 853.6 -0.7 73
2019-10-11 03:00:00 6.5 2 Sur 10 Este 0 854 -0.5 74
2019-10-11 02:00:00 8.2 5 Sudeste 24 Este 0 854 -0.5 69
2019-10-11 01:00:00 8.9 9 Este 31 Este 0 854.3 0 67
2019-10-11 00:00:00 11.6 24 Este 37 Este 0 854.5 0.2 56
2019-10-10 23:00:00 9.9 14 Este 26 Este 0 854.5 0.5 65
2019-10-10 22:00:00 9.8 6 Este 16 Sur 0 854.3 0.4 66
2019-10-10 21:00:00 12.9 11 Sur 23 Sur 0 854.3 0.2 54
2019-10-10 20:00:00 12.5 5 Sudeste 17 Sur 0 854 -0.3 58
2019-10-10 19:00:00 15.2 4 Oeste 13 Oeste 0 853.9 -0.8 50
2019-10-10 18:00:00 16.4 11 Oeste 15 Oeste 0 854.1 -0.8 47
2019-10-10 17:00:00 16.6 12 Oeste 19 Oeste 0 854.3 -1 43
2019-10-10 16:00:00 15.9 15 Noroeste 21 Noroeste 0 854.7 -0.8 45
2019-10-10 15:00:00 16.5 11 Oeste 21 Norte 0 854.9 -0.7 39
2019-10-10 14:00:00 16.7 6 Nordeste 15 Nordeste 0 855.3 -0.1 39
2019-10-10 13:00:00 15.5 10 Este 14 Este 0 855.5 0.3 41
2019-10-10 12:00:00 12.7 6 Noroeste 13 Noroeste 0 855.6 0.9 38
2019-10-10 11:00:00 11.2 13 Oeste 17 Noroeste 0 855.4 0.9 40
2019-10-10 10:00:00 8.4 9 Oeste 14 Oeste 0 855.2 0.6 50
2019-10-10 09:00:00 3.7 13 Noroeste 16 Oeste 0 854.7 0.2 65
2019-10-10 08:00:00 3.1 6 Oeste 10 Oeste 0 854.5 -0.1 63
2019-10-10 07:00:00 3.5 2 Oeste 17 Oeste 0 854.6 0 73
2019-10-10 06:00:00 2.7 12 Oeste 19 Oeste 0 854.5 -0.4 76
2019-10-10 05:00:00 1.2 5 Noroeste 11 Oeste 0 854.6 -0.3 80
2019-10-10 04:00:00 0.9 5 Oeste 9 Noroeste 0 854.6 -0.6 84
2019-10-10 03:00:00 1.8 7 Noroeste 15 Oeste 0 854.9 -0.3 89
2019-10-10 02:00:00 3.8 13 Oeste 17 Oeste 0 854.9 -0.1 92
2019-10-10 01:00:00 4.5 13 Oeste 23 Oeste 0 855.2 0.1 92
2019-10-10 00:00:00 3.8 14 Oeste 20 Oeste 0 855.2 0 92
2019-10-09 23:00:00 4.6 18 Oeste 24 Oeste 0 855 0.4 90
2019-10-09 22:00:00 4.8 6 Oeste 21 Oeste 0 855.1 0.3 89
2019-10-09 21:00:00 5.3 15 Noroeste 26 Oeste 0 855.2 0.6 88
2019-10-09 20:00:00 5 14 Oeste 24 Oeste 0 854.6 0.1 84
2019-10-09 19:00:00 7.1 17 Oeste 30 Oeste 0 854.8 0.3 77
2019-10-09 18:00:00 9.1 21 Oeste 33 Oeste 0 854.6 0.1 69
2019-10-09 17:00:00 9.8 25 Oeste 37 Oeste 0 854.5 -0.1 58
2019-10-09 16:00:00 10.2 24 Oeste 33 Oeste 0 854.5 -0.2 59
2019-10-09 15:00:00 9.5 19 Oeste 31 Oeste 0 854.5 -0.6 62
2019-10-09 14:00:00 8.4 20 Oeste 31 Oeste 0 854.6 -0.1 67
2019-10-09 13:00:00 7.4 21 Oeste 32 Oeste 0 854.7 0.4 75
2019-10-09 12:00:00 6.9 22 Oeste 33 Oeste 0 855.1 1.6 81
2019-10-09 11:00:00 6.5 20 Oeste 30 Oeste 0 854.7 1.3 82
2019-10-09 10:00:00 5.4 12 Noroeste 28 Oeste 0 854.3 1 93
2019-10-09 09:00:00 4.3 20 Oeste 27 Noroeste 0 853.5 0.5 94
2019-10-09 08:00:00 3.9 18 Oeste 26 Oeste 0 853.4 0.7 94
2019-10-09 07:00:00 4.7 16 Oeste 32 Oeste 0 853.3 0.3 94
2019-10-09 06:00:00 5.3 18 Oeste 26 Oeste 0 853 0.2 94
2019-10-09 05:00:00 5.6 10 Noroeste 21 Oeste 0 852.7 0.3 94
2019-10-09 04:00:00 5.9 15 Noroeste 32 Oeste 0 853 -0.1 94
2019-10-09 03:00:00 6.5 18 Oeste 26 Oeste 0 852.8 -0.9 94
2019-10-09 02:00:00 5.8 5 Sudeste 9 Sudeste 0 852.4 -1 94
2019-10-09 01:00:00 6.7 5 Oeste 23 Oeste 0 853.1 -0.2 94
2019-10-09 00:00:00 7.6 16 Oeste 28 Oeste 0 853.7 0.6 94
2019-10-08 23:00:00 7.8 16 Oeste 32 Oeste 0 853.4 0.3 94
2019-10-08 22:00:00 8.2 21 Oeste 35 Oeste 0 853.3 0.3 94
2019-10-08 21:00:00 8.8 24 Oeste 32 Oeste 0 853.1 0 94
2019-10-08 20:00:00 9.5 22 Oeste 35 Oeste 0 853.1 -0.1 94
2019-10-08 19:00:00 10.6 22 Oeste 30 Oeste 0 853 -0.4 94
2019-10-08 18:00:00 11.2 15 Oeste 30 Oeste 0 853.1 -0.1 94
2019-10-08 17:00:00 11.6 22 Oeste 33 Oeste 0 853.2 -0.3 93
2019-10-08 16:00:00 15.3 24 Oeste 38 Oeste 0 853.4 -0.6 79
2019-10-08 15:00:00 17.9 23 Oeste 36 Oeste 0 853.2 -0.8 59
2019-10-08 14:00:00 18.4 9 Oeste 25 Oeste 0 853.5 -0.8 55
2019-10-08 13:00:00 17 19 Oeste 25 Oeste 0 854 0 57
2019-10-08 12:00:00 18.3 14 Este 20 Nordeste 0 854 0 46
2019-10-08 11:00:00 16.6 8 Este 11 Este 0 854.3 0.3 49
2019-10-08 10:00:00 13.3 2 Sudeste 6 Este 0 854 -0.1 61
2019-10-08 09:00:00 8 2 Nordeste 5 Este 0 854 -0.3 77
2019-10-08 08:00:00 6.8 2 Sudeste 5 Sur 0 854 -0.4 78
2019-10-08 07:00:00 6.4 0 Calma 6 Sur 0 854.1 -0.8 81
2019-10-08 06:00:00 7.2 2 Sur 10 Sur 0 854.3 -1 74
2019-10-08 05:00:00 8.7 2 Este 9 Sudeste 0 854.4 -1.1 70
2019-10-08 04:00:00 8.1 3 Sur 6 Sudeste 0 854.9 -0.8 73
2019-10-08 03:00:00 7.5 3 Sudoeste 5 Sur 0 855.3 -0.7 74
2019-10-08 02:00:00 8.2 0 Calma 6 Noroeste 0 855.5 -0.6 73
2019-10-08 01:00:00 8 4 Noroeste 7 Noroeste 0 855.7 -0.2 74
2019-10-08 00:00:00 9.1 3 Oeste 7 Oeste 0 856 0.3 70
2019-10-07 23:00:00 8.5 4 Noroeste 7 Noroeste 0 856.1 0.3 71
2019-10-07 22:00:00 9.7 3 Oeste 8 Oeste 0 855.9 0 66
2019-10-07 21:00:00 10.9 4 Oeste 8 Oeste 0 855.7 0 65
2019-10-07 20:00:00 12.7 5 Oeste 18 Oeste 0 855.8 -0.1 52
2019-10-07 19:00:00 16.6 17 Oeste 23 Oeste 0 855.9 0 40
2019-10-07 18:00:00 17.9 18 Oeste 24 Oeste 0 855.7 -0.2 35
2019-10-07 17:00:00 18.3 18 Oeste 29 Oeste 0 855.9 -0.3 24
2019-10-07 16:00:00 18.6 19 Oeste 26 Oeste 0 855.9 -0.2 18
2019-10-07 15:00:00 18.8 18 Oeste 30 Oeste 0 855.9 -0.2 14
2019-10-07 14:00:00 18.5 20 Oeste 30 Noroeste 0 856.2 0.2 11
2019-10-07 13:00:00 18.3 15 Oeste 24 Oeste 0 856.1 0.3 15
2019-10-07 12:00:00 17.1 15 Noroeste 23 Noroeste 0 856.1 0.6 15
2019-10-07 11:00:00 15.4 15 Noroeste 23 Noroeste 0 856 0.6 16
2019-10-07 10:00:00 12.7 14 Noroeste 18 Noroeste 0 855.8 0.6 16
2019-10-07 09:00:00 9.3 13 Oeste 20 Noroeste 0 855.5 0.6 21
2019-10-07 08:00:00 8.7 14 Oeste 19 Noroeste 0 855.4 0.5 20
2019-10-07 07:00:00 9.5 14 Noroeste 20 Noroeste 0 855.2 0.1 21
2019-10-07 06:00:00 8.4 13 Noroeste 20 Noroeste 0 854.9 -0.5 29
2019-10-07 05:00:00 8.7 15 Noroeste 21 Noroeste 0 854.9 -0.7 29
2019-10-07 04:00:00 9.4 17 Noroeste 25 Noroeste 0 855.1 -0.8 27
2019-10-07 03:00:00 9.1 18 Oeste 26 Oeste 0 855.4 -0.8 33
2019-10-07 02:00:00 9.9 20 Oeste 31 Oeste 0 855.6 -0.9 37
2019-10-07 01:00:00 9.2 18 Noroeste 29 Oeste 0 855.9 -0.3 63
2019-10-07 00:00:00 9 21 Oeste 33 Oeste 0 856.2 0.1 74
2019-10-06 23:00:00 9 18 Oeste 28 Oeste 0 856.5 0.6 88
2019-10-06 22:00:00 9.1 18 Noroeste 27 Oeste 0 856.2 0.7 88
2019-10-06 21:00:00 9.7 16 Oeste 24 Oeste 0 856.1 0.7 92
2019-10-06 20:00:00 10.1 15 Oeste 26 Noroeste 0 855.9 0.5 91
2019-10-06 19:00:00 12.3 15 Oeste 30 Oeste 0 855.5 0 76
2019-10-06 18:00:00 13.1 20 Oeste 32 Oeste 0 855.4 -0.2 72
2019-10-06 17:00:00 13.3 24 Oeste 32 Oeste 0 855.4 -0.5 72
2019-10-06 16:00:00 12.8 21 Oeste 32 Oeste 0 855.5 0 75
2019-10-06 15:00:00 13.1 18 Oeste 34 Oeste 0 855.6 0.1 72
2019-10-06 14:00:00 12.8 25 Oeste 35 Oeste 0 855.9 0.1 75
2019-10-06 13:00:00 12.8 21 Oeste 30 Oeste 0 855.5 0.3 76
2019-10-06 12:00:00 12.5 11 Noroeste 21 Oeste 0 855.5 1 72
2019-10-06 11:00:00 10.5 15 Oeste 23 Oeste 0 855.8 1.7 89
2019-10-06 10:00:00 9.7 12 Noroeste 18 Noroeste 0 855.2 1.2 93
2019-10-06 09:00:00 9.5 12 Noroeste 24 Oeste 0 854.5 0.5 91
2019-10-06 08:00:00 9.7 19 Oeste 32 Oeste 0 854.1 0.1 90
2019-10-06 07:00:00 9.8 15 Oeste 28 Oeste 0 854 -0.3 90
2019-10-06 06:00:00 9.9 13 Oeste 24 Oeste 0 854 -0.5 90
2019-10-06 05:00:00 8.9 11 Noroeste 22 Oeste 0 854 -0.5 87
2019-10-06 04:00:00 8.4 14 Noroeste 28 Oeste 0 854.3 0.3 84
2019-10-06 03:00:00 8.2 19 Oeste 30 Oeste 0 854.5 0.5 71
2019-10-06 02:00:00 8.8 18 Oeste 28 Oeste 0 854.5 0.3 65
2019-10-06 01:00:00 6.7 5 Oeste 14 Oeste 0 854 0.5 72
2019-10-06 00:00:00 8.1 8 Oeste 19 Oeste 0 854 0.6 93
2019-10-05 23:00:00 9.4 22 Oeste 39 Noroeste 0 854.2 0.9 93
2019-10-05 22:00:00 9 6 Oeste 15 Oeste 0 853.5 0.8 86
2019-10-05 21:00:00 9.3 12 Oeste 23 Oeste 0 853.4 1.2 93
2019-10-05 20:00:00 9.8 18 Oeste 35 Oeste 0 853.3 1.2 92
2019-10-05 19:00:00 10.8 23 Noroeste 39 Oeste 0 852.7 1 89
2019-10-05 18:00:00 14.6 20 Noroeste 32 Noroeste 0 852.2 0.2 66
2019-10-05 17:00:00 14 25 Noroeste 34 Oeste 0 852.1 -0.3 79
2019-10-05 16:00:00 19.8 14 Este 30 Este 0 851.7 -0.6 50
2019-10-05 15:00:00 15.4 15 Oeste 29 Oeste 0 852 -0.5 74
2019-10-05 14:00:00 15.2 20 Oeste 27 Oeste 0 852.4 -0.1 69
2019-10-05 13:00:00 17.9 13 Este 19 Este 0 852.3 0.2 63
2019-10-05 12:00:00 16.8 8 Este 13 Este 0 852.5 0.8 69
2019-10-05 11:00:00 13.8 6 Este 9 Este 0.2 852.5 1 92
2019-10-05 10:00:00 10.1 6 Este 8 Este 0 852.1 0.7 94
2019-10-05 09:00:00 4.7 2 Noroeste 5 Sur 0 851.7 0 94
2019-10-05 08:00:00 4.3 2 Sudeste 8 Este 0 851.5 -0.3 94
2019-10-05 07:00:00 4.1 0 Calma 4 Norte 0 851.4 -0.8 94
2019-10-05 06:00:00 5 0 Calma 6 Oeste 0 851.7 -0.7 94
2019-10-05 05:00:00 5.6 3 Oeste 5 Oeste 0 851.8 -0.5 94
2019-10-05 04:00:00 5.6 0 Calma 5 Oeste 0 852.2 -0.3 94
2019-10-05 03:00:00 5.5 4 Noroeste 6 Noroeste 0 852.4 -0.1 94
2019-10-05 02:00:00 6 0 Calma 6 Noroeste 0 852.3 -0.4 94
2019-10-05 01:00:00 6.8 5 Oeste 6 Oeste 0 852.5 -0.2 94
2019-10-05 00:00:00 7.1 5 Oeste 8 Noroeste 0 852.5 0 94
2019-10-04 23:00:00 7 6 Oeste 8 Noroeste 0 852.7 0.3 94
2019-10-04 22:00:00 7.5 5 Noroeste 16 Oeste 0 852.7 0.6 94
2019-10-04 21:00:00 9.1 15 Oeste 24 Oeste 0 852.5 0.5 94
2019-10-04 20:00:00 9.8 14 Oeste 21 Oeste 0 852.4 0.4 94
2019-10-04 19:00:00 10.2 16 Oeste 26 Oeste 0 852.1 -0.2 94
2019-10-04 18:00:00 10.4 19 Oeste 24 Oeste 0 852 -0.3 94
2019-10-04 17:00:00 10.6 20 Oeste 32 Oeste 0 852 -0.6 93
2019-10-04 16:00:00 11.5 23 Oeste 34 Oeste 0 852.3 -0.7 91
2019-10-04 15:00:00 14.8 23 Oeste 36 Este 0 852.3 -1.1 76
2019-10-04 14:00:00 17.1 9 Este 20 Oeste 0 852.6 -1 58
2019-10-04 13:00:00 14.1 13 Noroeste 26 Oeste 0 853 -0.2 68
2019-10-04 12:00:00 12.7 13 Oeste 19 Oeste 0 853.4 0.6 76
2019-10-04 11:00:00 10.6 12 Noroeste 17 Noroeste 0 853.6 0.9 94
2019-10-04 10:00:00 9.7 12 Oeste 15 Oeste 0 853.2 0.5 94
2019-10-04 09:00:00 8.9 4 Oeste 9 Oeste 0 852.8 0 94
2019-10-04 08:00:00 8.5 7 Noroeste 12 Oeste 0 852.7 -0.2 94
2019-10-04 07:00:00 7.9 2 Noroeste 10 Noroeste 0 852.7 -0.4 93
2019-10-04 06:00:00 6.7 6 Oeste 10 Noroeste 0 852.8 -0.9 91
2019-10-04 05:00:00 7.7 2 Sur 9 Oeste 0 852.9 -0.8 92
2019-10-04 04:00:00 7.5 7 Oeste 13 Sur 0 853.1 -1.1 91
2019-10-04 03:00:00 8.5 5 Oeste 10 Noroeste 0 853.7 -0.9 90
2019-10-04 02:00:00 9.7 4 Noroeste 8 Noroeste 0 853.7 -1 87
2019-10-04 01:00:00 9.7 5 Noroeste 17 Oeste 0 854.2 -0.6 84
2019-10-04 00:00:00 11.9 9 Oeste 17 Oeste 0 854.6 0.1 82
2019-10-03 23:00:00 11.6 10 Oeste 18 Oeste 0 854.7 0.4 81
2019-10-03 22:00:00 9.7 3 Oeste 23 Noroeste 0 854.8 1.1 79
2019-10-03 21:00:00 10.1 13 Noroeste 18 Oeste 0 854.5 0.7 77
2019-10-03 20:00:00 11.7 14 Noroeste 29 Oeste 0 854.3 0.4 70
2019-10-03 19:00:00 14.2 23 Oeste 30 Oeste 0 853.7 -0.2 59
2019-10-03 18:00:00 16.1 19 Oeste 30 Oeste 0 853.8 -0.2 51
2019-10-03 17:00:00 17.5 20 Oeste 27 Oeste 0 853.9 -0.3 37
2019-10-03 16:00:00 17.6 18 Oeste 33 Oeste 0 853.9 -0.4 32
2019-10-03 15:00:00 17.5 23 Oeste 35 Noroeste 0 854 -0.1 28
2019-10-03 14:00:00 16 20 Oeste 35 Oeste 0 854.2 0.6 32
2019-10-03 13:00:00 15.6 27 Oeste 40 Oeste 0 854.3 1 28
2019-10-03 12:00:00 15.5 17 Oeste 37 Oeste 0 854.1 1 30
2019-10-03 11:00:00 14.2 19 Oeste 27 Oeste 0 853.6 0.4 31
2019-10-03 10:00:00 9 2 Norte 10 Noroeste 0 853.3 0.1 61
2019-10-03 09:00:00 3.6 6 Oeste 9 Oeste 0.2 853.1 -0.1 79
2019-10-03 08:00:00 2.8 3 Oeste 9 Oeste 0 853.2 -0.2 86
2019-10-03 07:00:00 3.1 2 Este 9 Este 0 853.2 -0.3 87
2019-10-03 06:00:00 3.7 4 Este 7 Este 0 853.2 -1 86
2019-10-03 05:00:00 4.1 2 Este 8 Sudeste 0 853.4 -0.6 87
2019-10-03 04:00:00 4.3 4 Este 9 Este 0 853.5 -0.8 87
2019-10-03 03:00:00 4.5 5 Este 7 Este 0 854.2 -0.4 88
2019-10-03 02:00:00 4.1 3 Este 6 Noroeste 0 854 -0.8 89
2019-10-03 01:00:00 4.1 2 Oeste 5 Noroeste 0 854.3 -0.7 91
2019-10-03 00:00:00 4.5 0 Calma 6 Sudeste 0 854.6 -0.3 90
2019-10-02 23:00:00 6.4 2 Sudoeste 16 Oeste 0 854.8 0.1 91
2019-10-02 22:00:00 5.8 9 Oeste 15 Oeste 0 855 0.6 89
2019-10-02 21:00:00 5.5 9 Oeste 13 Noroeste 0 854.9 0.4 90
2019-10-02 20:00:00 7.2 11 Oeste 24 Oeste 0 854.7 0.2 81
2019-10-02 19:00:00 10.3 16 Oeste 24 Oeste 0 854.4 0 71
2019-10-02 18:00:00 11.1 15 Oeste 23 Oeste 0 854.5 0.3 70
2019-10-02 17:00:00 11.4 9 Oeste 22 Oeste 0 854.5 0.1 68
2019-10-02 16:00:00 9.8 12 Oeste 26 Noroeste 0 854.4 0.1 75
2019-10-02 15:00:00 9.5 16 Oeste 33 Oeste 0 854.2 0.4 78
2019-10-02 14:00:00 9.2 15 Oeste 30 Oeste 0 854.4 1.2 77
2019-10-02 13:00:00 6.3 20 Oeste 31 Oeste 0 854.3 2 89
2019-10-02 12:00:00 6.2 23 Oeste 43 Oeste 0 853.8 2.5 88
2019-10-02 11:00:00 6.3 30 Oeste 50 Oeste 0.2 853.2 2.3 90
2019-10-02 10:00:00 6.3 28 Oeste 53 Oeste 0 852.3 1.8 90
2019-10-02 09:00:00 6.3 28 Oeste 51 Oeste 0 851.3 0.6 88
2019-10-02 08:00:00 6.1 34 Oeste 56 Oeste 0 850.9 0.2 87
2019-10-02 07:00:00 6.2 36 Oeste 60 Oeste 0 850.5 -0.5 85
2019-10-02 06:00:00 6.3 33 Oeste 63 Oeste 0 850.7 -0.3 83
2019-10-02 05:00:00 6.3 36 Oeste 69 Oeste 0 850.7 -0.4 81
2019-10-02 04:00:00 6.7 33 Oeste 74 Oeste 0 851 -0.2 79
2019-10-02 03:00:00 6.9 34 Oeste 60 Oeste 0 851 0 77
2019-10-02 02:00:00 7.5 31 Oeste 57 Oeste 0 851.1 0.3 79
2019-10-02 01:00:00 7.9 26 Oeste 50 Oeste 0 851.2 0.6 78
2019-10-02 00:00:00 8.2 25 Oeste 48 Noroeste 0 851 0.6 81
2019-10-01 23:00:00 8.7 22 Oeste 33 Oeste 0 850.8 0.7 82
2019-10-01 22:00:00 9 16 Oeste 29 Oeste 0 850.6 0.8 88
2019-10-01 21:00:00 9.7 15 Oeste 24 Oeste 0 850.4 0.8 89
2019-10-01 20:00:00 10.8 14 Oeste 23 Oeste 0 850.1 0.5 84
2019-10-01 19:00:00 12.6 19 Oeste 29 Oeste 0 849.8 0.3 69
2019-10-01 18:00:00 14 18 Oeste 32 Oeste 0 849.6 0.1 60
2019-10-01 17:00:00 15.2 21 Oeste 32 Noroeste 0 849.6 -0.1 60
2019-10-01 16:00:00 16 20 Oeste 29 Oeste 0 849.5 -0.3 55
2019-10-01 15:00:00 15.7 19 Oeste 33 Oeste 0 849.5 -0.2 53
2019-10-01 14:00:00 15.4 15 Oeste 27 Oeste 0 849.7 0 53
2019-10-01 13:00:00 14.5 17 Oeste 27 Oeste 0 849.8 0.6 65
2019-10-01 12:00:00 13.3 18 Oeste 28 Oeste 0 849.7 0.7 72
2019-10-01 11:00:00 12.3 11 Oeste 32 Oeste 0 849.7 0.9 75
2019-10-01 10:00:00 12.5 9 Noroeste 28 Oeste 0 849.2 0.6 72
2019-10-01 09:00:00 8.2 9 Oeste 13 Oeste 0 849 0.2 82
2019-10-01 08:00:00 6.8 7 Noroeste 13 Noroeste 0 848.8 -0.2 79
2019-10-01 07:00:00 7.2 5 Oeste 9 Noroeste 0 848.6 -0.8 78
2019-10-01 06:00:00 9.3 6 Oeste 24 Oeste 0 848.8 -1.2 76
2019-10-01 05:00:00 11.6 22 Oeste 30 Oeste 0 849 -1.3 86
2019-10-01 04:00:00 14.1 14 Sudoeste 31 Oeste 0 849.4 -1.4 54
2019-10-01 03:00:00 11.2 5 Oeste 13 Sur 0 850 -1 67
2019-10-01 02:00:00 11.6 7 Oeste 19 Sudoeste 0 850.3 -0.8 66
2019-10-01 01:00:00 13.5 10 Sudoeste 18 Sudoeste 0 850.8 -0.3 67
2019-10-01 00:00:00 11.1 2 Oeste 15 Oeste 0 851 -0.1 92
2019-09-30 23:00:00 11 5 Oeste 8 Oeste 0 851.1 0 87
2019-09-30 22:00:00 13.4 3 Sudoeste 15 Oeste 0 851.1 0.1 87
2019-09-30 21:00:00 14.2 11 Oeste 16 Sur 0 851.1 -0.1 87
2019-09-30 20:00:00 17.1 6 Sudoeste 18 Sudoeste 0 851.1 -0.5 61
2019-09-30 19:00:00 18.8 4 Este 21 Sudeste 0 851 -0.9 57
2019-09-30 18:00:00 18.7 5 Sudoeste 22 Oeste 0 851.2 -1.1 55
2019-09-30 17:00:00 19.8 7 Noroeste 28 Oeste 0 851.6 -1.2 49
2019-09-30 16:00:00 20.8 10 Oeste 33 Sudeste 0 851.9 -1.1 48
2019-09-30 15:00:00 19.9 9 Sudeste 27 Sudeste 0 852.3 -1.1 47
2019-09-30 14:00:00 19 20 Este 34 Este 0 852.8 -0.5 47
2019-09-30 13:00:00 17.9 22 Este 38 Este 0 853 -0.1 53
2019-09-30 12:00:00 17.4 15 Este 21 Este 0 853.4 0.4 58
2019-09-30 11:00:00 16.6 7 Este 14 Oeste 0 853.3 0.6 68
2019-09-30 10:00:00 13.9 10 Noroeste 15 Noroeste 0 853.1 0.2 78
2019-09-30 09:00:00 9.2 8 Noroeste 14 Oeste 0 853 0 91
2019-09-30 08:00:00 8.4 13 Oeste 17 Oeste 0 852.7 -0.4 91
2019-09-30 07:00:00 8.7 10 Noroeste 15 Noroeste 0 852.9 -0.5 92
2019-09-30 06:00:00 7.8 3 Sudoeste 6 Noroeste 0 853 -0.6 83
2019-09-30 05:00:00 8.4 3 Este 13 Oeste 0 853.1 -0.6 71
2019-09-30 04:00:00 7.9 3 Oeste 13 Noroeste 0 853.4 -0.7 72
2019-09-30 03:00:00 6.9 7 Oeste 10 Oeste 0 853.6 -0.6 80
2019-09-30 02:00:00 8 9 Oeste 13 Oeste 0 853.7 -0.4 85
2019-09-30 01:00:00 8.7 5 Oeste 9 Noroeste 0 854.1 0.1 87
2019-09-30 00:00:00 10.3 6 Oeste 15 Noroeste 0 854.2 0.8 90
2019-09-29 23:00:00 9.9 7 Noroeste 16 Oeste 0 854.1 0.9 87
2019-09-29 22:00:00 11.7 9 Noroeste 14 Oeste 0 854 1 90
2019-09-29 21:00:00 12.4 3 Oeste 18 Oeste 0 853.4 0.4 88
2019-09-29 20:00:00 14 13 Oeste 20 Noroeste 0 853.2 0.3 79
2019-09-29 19:00:00 17.2 10 Oeste 23 Oeste 0 853 0.3 66
2019-09-29 18:00:00 17.7 13 Oeste 24 Oeste 0 853 0 62
2019-09-29 17:00:00 17.8 13 Oeste 23 Oeste 0 852.9 -0.4 58
2019-09-29 16:00:00 18.6 14 Noroeste 35 Oeste 0 852.7 -0.6 53
2019-09-29 15:00:00 20 12 Oeste 37 Oeste 0 853 -0.4 47
2019-09-29 14:00:00 19.7 16 Oeste 32 Noroeste 0 853.3 0.3 45
2019-09-29 13:00:00 17.9 20 Este 29 Este 0 853.3 0.7 39
2019-09-29 12:00:00 17.2 17 Este 26 Este 0 853.4 1.1 38
2019-09-29 11:00:00 15.5 14 Este 23 Este 0 853 0.8 36
2019-09-29 10:00:00 12.7 9 Este 16 Este 0 852.6 0.4 42
2019-09-29 09:00:00 7.9 6 Sudeste 12 Sudeste 0 852.3 0.1 53
2019-09-29 08:00:00 5.9 3 Sudoeste 8 Oeste 0 852.2 -0.2 58
2019-09-29 07:00:00 5.2 3 Sudoeste 10 Sudeste 0 852.2 -0.7 58
2019-09-29 06:00:00 6.8 3 Sudeste 8 Sudoeste 0 852.2 -1 53
2019-09-29 05:00:00 5.9 2 Sur 11 Este 0 852.4 -1 61
2019-09-29 04:00:00 6.7 4 Sur 10 Oeste 0 852.9 -0.8 61
2019-09-29 03:00:00 6.6 4 Sudoeste 15 Nordeste 0 853.2 -0.7 62
2019-09-29 02:00:00 11.1 9 Sur 20 Sudoeste 0 853.4 -0.5 36
2019-09-29 01:00:00 8.5 4 Sudeste 10 Oeste 0 853.7 -0.1 65
2019-09-29 00:00:00 9.2 5 Sudeste 13 Sudeste 0 853.9 0.1 66
2019-09-28 23:00:00 10.2 4 Este 19 Sudeste 0 853.9 0.2 59
2019-09-28 22:00:00 10.7 4 Norte 10 Sudeste 0 853.8 0.1 59
2019-09-28 21:00:00 11.1 3 Sudeste 13 Este 0 853.8 0.1 59
2019-09-28 20:00:00 15 4 Este 19 Oeste 0 853.7 0 43
2019-09-28 19:00:00 18.7 5 Oeste 21 Oeste 0 853.7 -0.3 31
2019-09-28 18:00:00 19.8 9 Oeste 21 Oeste 0 853.7 -0.6 30
2019-09-28 17:00:00 20.1 7 Sudoeste 32 Este 0 853.7 -1.4 27
2019-09-28 16:00:00 17.8 21 Este 38 Este 0 854 -1.3 52
2019-09-28 15:00:00 17.1 24 Este 33 Este 0 854.3 -1 54
2019-09-28 14:00:00 15.5 16 Este 26 Este 0 855.1 -0.3 62
2019-09-28 13:00:00 14.1 15 Este 20 Este 0 855.3 0.5 62
2019-09-28 12:00:00 11.1 11 Este 16 Este 0 855.3 0.8 87
2019-09-28 11:00:00 7.7 13 Este 17 Este 0 855.4 1.1 93
2019-09-28 10:00:00 6.5 9 Este 11 Este 0 854.8 0.6 93
2019-09-28 09:00:00 6 7 Este 12 Este 0 854.5 0.1 92
2019-09-28 08:00:00 4.4 5 Sudeste 11 Sudeste 0 854.3 -0.2 88
2019-09-28 07:00:00 4.2 4 Sudeste 8 Sudeste 0 854.2 -0.5 91
2019-09-28 06:00:00 4.1 2 Nordeste 4 Sudeste 0 854.4 -0.4 93
2019-09-28 05:00:00 3.7 2 Sur 4 Sur 0 854.5 -0.4 93
2019-09-28 04:00:00 4 0 Calma 13 Noroeste 0 854.7 -0.2 93
2019-09-28 03:00:00 5.8 10 Oeste 16 Oeste 0 854.8 -0.2 93
2019-09-28 02:00:00 4.5 5 Noroeste 12 Noroeste 0 854.9 -0.1 92
2019-09-28 01:00:00 6.7 3 Oeste 14 Oeste 0 854.9 0.2 89
2019-09-28 00:00:00 8.3 9 Sudoeste 21 Oeste 0 855 0.6 89
2019-09-27 23:00:00 8.8 13 Oeste 17 Oeste 0 855 0.9 92
2019-09-27 22:00:00 9.5 17 Oeste 24 Oeste 0 854.7 0.7 90
2019-09-27 21:00:00 10.8 12 Oeste 19 Oeste 0 854.4 0.7 91
2019-09-27 20:00:00 11.2 16 Oeste 21 Oeste 0 854.1 0.6 92
2019-09-27 19:00:00 11.8 13 Oeste 25 Oeste 0 854 0.5 91
2019-09-27 18:00:00 12.4 19 Oeste 30 Oeste 0 853.7 -0.1 89
2019-09-27 17:00:00 13.8 24 Oeste 32 Oeste 0 853.5 -0.6 82
2019-09-27 16:00:00 15.6 15 Oeste 24 Oeste 0 853.5 -0.4 62
2019-09-27 15:00:00 16.2 15 Oeste 25 Oeste 0 853.8 -0.3 59
2019-09-27 14:00:00 15.8 15 Oeste -- -- 0 854.1 0.1 62
2019-09-27 13:00:00 16.2 13 Sudeste 19 Sudeste 0 853.9 0.2 58
2019-09-27 12:00:00 14.9 5 Oeste 17 Noroeste 0 854.1 0.6 61
2019-09-27 11:00:00 12.7 4 Noroeste 12 Nordeste 0 854 0.6 70
2019-09-27 10:00:00 12.3 7 Este 11 Este 0 853.7 0.3 79
2019-09-27 09:00:00 10 3 Este 16 Oeste 0 853.5 0.2 75
2019-09-27 08:00:00 9.8 10 Noroeste 18 Oeste 0 853.4 -0.1 80
2019-09-27 07:00:00 8 10 Oeste 19 Noroeste 0 853.4 -0.3 77
2019-09-27 06:00:00 5.6 6 Oeste 16 Noroeste 0 853.3 -0.8 77
2019-09-27 05:00:00 4.8 9 Noroeste 15 Noroeste 0 853.5 -0.6 84
2019-09-27 04:00:00 6.6 7 Oeste 12 Noroeste 0 853.7 -0.8 92
2019-09-27 03:00:00 7.4 13 Oeste 22 Oeste 0 854.1 -0.4 87
2019-09-27 02:00:00 5.5 8 Oeste 12 Noroeste 0 854.1 0 66
2019-09-27 01:00:00 6.4 8 Oeste 10 Oeste 0 854.5 0.4 75
2019-09-27 00:00:00 6.8 5 Noroeste 10 Noroeste 0 854.5 0.6 67
2019-09-26 23:00:00 7.5 7 Oeste 10 Noroeste 0 854.1 0.3 68
2019-09-26 22:00:00 9 5 Noroeste 10 Oeste 0 854.1 0.5 75
2019-09-26 21:00:00 10.6 6 Oeste 13 Noroeste 0 853.9 0.5 75
2019-09-26 20:00:00 12.9 7 Oeste 15 Oeste 0 853.8 0.3 65
2019-09-26 19:00:00 16.9 13 Oeste 22 Oeste 0 853.6 0.2 49
2019-09-26 18:00:00 17.8 17 Oeste 24 Oeste 0 853.4 0.1 45
2019-09-26 17:00:00 18.5 19 Oeste 27 Oeste 0 853.5 -0.1 34
2019-09-26 16:00:00 19.1 13 Oeste 23 Oeste 0 853.4 -0.3 29
2019-09-26 15:00:00 18.5 19 Oeste 32 Noroeste 0 853.3 -0.4 23
2019-09-26 14:00:00 18.8 15 Noroeste 26 Oeste 0 853.6 0.3 21
2019-09-26 13:00:00 17.7 14 Oeste 22 Noroeste 0 853.7 0.7 20
2019-09-26 12:00:00 15.9 12 Este 20 Este 0 853.7 1 54
2019-09-26 11:00:00 14.2 12 Este 19 Este 0 853.3 0.7 61
2019-09-26 10:00:00 11.5 4 Sudeste 6 Este 0 853 0.5 72
2019-09-26 09:00:00 6 4 Sudeste 7 Sudeste 0 852.7 -0.1 85
2019-09-26 08:00:00 5.9 3 Este 7 Sudeste 0 852.6 -0.3 84
2019-09-26 07:00:00 6.1 0 Calma 4 Oeste 0 852.5 -0.3 91
2019-09-26 06:00:00 6 0 Calma 5 Noroeste 0 852.8 -0.2 91
2019-09-26 05:00:00 5.8 0 Calma 7 Sur 0 852.9 -0.1 90
2019-09-26 04:00:00 6.3 0 Calma 7 Sudeste 0 852.8 -0.7 91
2019-09-26 03:00:00 6.4 2 Este 5 Sudeste 0 853 -0.3 92
2019-09-26 02:00:00 6.4 0 Calma 5 Noroeste 0 853 -0.3 90
2019-09-26 01:00:00 6.8 3 Noroeste 5 Noroeste 0 853.5 0.4 90
2019-09-26 00:00:00 7.3 3 Noroeste 7 Noroeste 0 853.3 0.5 90
2019-09-25 23:00:00 7.3 0 Calma 4 Noroeste 0 853.3 0.8 89
2019-09-25 22:00:00 8.2 3 Noroeste 5 Noroeste 0 853.1 0.5 86
2019-09-25 21:00:00 9.9 4 Oeste 10 Oeste 0 852.8 0.3 80
2019-09-25 20:00:00 12.8 7 Oeste 13 Oeste 0 852.5 -0.1 71
2019-09-25 19:00:00 13.7 10 Oeste 24 Oeste 0 852.6 0.1 64
2019-09-25 18:00:00 14.1 12 Oeste 22 Oeste 0 852.5 -0.2 66
2019-09-25 17:00:00 14 16 Oeste 29 Oeste 0 852.6 -0.5 64
2019-09-25 16:00:00 15 21 Oeste 30 Oeste 0 852.5 -0.5 58
2019-09-25 15:00:00 13.6 14 Oeste 27 Oeste 0 852.7 -0.4 61
2019-09-25 14:00:00 13.6 19 Oeste 28 Oeste 0 853.1 0.4 62
2019-09-25 13:00:00 12.6 12 Oeste 26 Oeste 0 853 0.6 59
2019-09-25 12:00:00 11.3 18 Oeste 28 Oeste 0 853.1 1.1 66
2019-09-25 11:00:00 9.8 12 Oeste 18 Oeste 0 852.7 1.2 73
2019-09-25 10:00:00 8 10 Oeste 21 Oeste 0 852.4 1.1 79
2019-09-25 09:00:00 7 17 Oeste 23 Oeste 0 852 0.8 82
2019-09-25 08:00:00 7.1 15 Oeste 36 Oeste 0 851.5 0.4 81
2019-09-25 07:00:00 7.1 22 Oeste 42 Oeste 0 851.3 -0.2 79
2019-09-25 06:00:00 6.9 24 Oeste 50 Oeste 0 851.2 -0.3 80
2019-09-25 05:00:00 7.2 26 Oeste 44 Oeste 0 851.1 -0.6 79
2019-09-25 04:00:00 7.1 23 Oeste 39 Oeste 0 851.5 -0.3 81
2019-09-25 03:00:00 6.9 18 Oeste 40 Oeste 0 851.5 -0.5 79
2019-09-25 02:00:00 7.4 26 Oeste 44 Oeste 0 851.7 -0.1 79
2019-09-25 01:00:00 8 15 Oeste 22 Oeste 0 851.8 0.2 84
2019-09-25 00:00:00 8.4 13 Oeste 22 Oeste 0 852 0.9 87
2019-09-24 23:00:00 9 15 Oeste 23 Oeste 0 851.8 0.9 88
2019-09-24 22:00:00 9.9 12 Oeste 19 Oeste 0 851.6 0.8 91
2019-09-24 21:00:00 10.2 10 Oeste 22 Oeste 0 851.1 0.4 90
2019-09-24 20:00:00 11.3 13 Oeste 23 Oeste 0 850.9 0.2 87
2019-09-24 19:00:00 13 14 Oeste 22 Oeste 0 850.8 0.2 79
2019-09-24 18:00:00 13.4 13 Oeste 23 Oeste 0 850.7 -0.2 79
2019-09-24 17:00:00 15.1 13 Oeste 26 Noroeste 0 850.7 -0.5 68
2019-09-24 16:00:00 15.6 13 Oeste 44 Noroeste 0 850.6 -0.5 57
2019-09-24 15:00:00 13.8 16 Sudeste 33 Sudeste 0 850.9 -0.1 72
2019-09-24 14:00:00 14.4 10 Sur 30 Oeste 0 851.2 0.4 69
2019-09-24 13:00:00 15 15 Oeste 49 Oeste 0 851.1 0.3 62
2019-09-24 12:00:00 14.7 24 Oeste 47 Oeste 0 851 0.3 62
2019-09-24 11:00:00 14.5 21 Oeste 38 Oeste 0 850.8 0.8 64
2019-09-24 10:00:00 10.9 16 Este 35 Este 0 850.8 0.7 90
2019-09-24 09:00:00 10.7 12 Nordeste 39 Oeste 0 850.7 0.5 87
2019-09-24 08:00:00 13.3 22 Sudoeste 44 Sudoeste 0 850 -0.3 75
2019-09-24 07:00:00 13.2 23 Sudoeste 47 Oeste 1.2 850.1 -0.9 77
2019-09-24 06:00:00 13 14 Oeste 43 Oeste 1 850.2 -1.1 74
2019-09-24 05:00:00 13.7 15 Oeste 45 Noroeste 0 850.3 -1.2 68
2019-09-24 04:00:00 13.8 24 Sudoeste 50 Oeste 0 851 -0.8 69
2019-09-24 03:00:00 13.3 14 Oeste 36 Oeste 0 851.3 -1.1 72
2019-09-24 02:00:00 12.8 14 Sudoeste 39 Sudoeste 0 851.5 -1.4 75
2019-09-24 01:00:00 12.1 15 Sur 40 Sur 0 851.8 -1.3 76
2019-09-24 00:00:00 11.1 11 Sudeste 36 Sudeste 0 852.4 -0.6 78
2019-09-23 23:00:00 10.2 21 Este 42 Este 0 852.9 -0.2 83
2019-09-23 22:00:00 11.8 10 Este 27 Sur 0 853.1 0.1 80
2019-09-23 21:00:00 11.7 13 Sur 28 Este 1 853 0.1 84
2019-09-23 20:00:00 11.6 8 Sur 22 Sur 0 853.1 0.3 80
2019-09-23 19:00:00 10.8 16 Nordeste 30 Este 1.2 853 0.3 85
2019-09-23 18:00:00 11.8 18 Este 37 Este 0.6 852.9 0.1 79
2019-09-23 17:00:00 13.2 15 Sudeste 36 Este 0 852.8 0.1 67
2019-09-23 16:00:00 11.9 25 Este 47 Este 0 852.7 0.2 71
2019-09-23 15:00:00 12.8 18 Este 33 Este 0 852.8 0.1 70
2019-09-23 14:00:00 12.7 18 Este 36 Nordeste 0 852.7 -0.4 63
2019-09-23 13:00:00 10.9 23 Este 54 Este 0 852.5 0.1 68
2019-09-23 12:00:00 9.7 26 Este 35 Este 0 852.7 0.8 72
2019-09-23 11:00:00 9.5 18 Este 29 Este 0 853.1 1.2 71
2019-09-23 10:00:00 7.8 14 Este 24 Este 0 852.4 0.6 78
2019-09-23 09:00:00 6.6 13 Este 24 Este 0 851.9 0.4 84
2019-09-23 08:00:00 6.4 3 Sudeste 8 Este 0 851.9 0.5 82
2019-09-23 07:00:00 5.9 4 Sudeste 8 Este 0 851.8 0.4 82
2019-09-23 06:00:00 6.2 5 Este 17 Este 0 851.5 0 80
2019-09-23 05:00:00 7.9 7 Nordeste 31 Sudoeste 0 851.4 0 69
2019-09-23 04:00:00 8.7 9 Sudoeste 28 Sudoeste 0 851.4 -0.2 62
2019-09-23 03:00:00 7.5 11 Sur 34 Sudoeste 0.2 851.5 0.2 73
2019-09-23 02:00:00 2.8 3 Este 8 Noroeste 0 851.4 0.1 90
2019-09-23 01:00:00 2.8 4 Oeste 8 Oeste 0 851.6 0.6 86
2019-09-23 00:00:00 3.5 4 Oeste 9 Noroeste 0 851.3 0.5 86
2019-09-22 23:00:00 4.3 4 Noroeste 10 Noroeste 0 851.3 1.1 86
2019-09-22 22:00:00 5.5 6 Noroeste 12 Oeste 0 851 1.2 87
2019-09-22 21:00:00 8 7 Oeste 27 Oeste 1.2 850.8 1.5 89
2019-09-22 20:00:00 8.5 9 Oeste 23 Oeste 0 850.2 1.1 80
2019-09-22 19:00:00 10.9 16 Oeste 22 Noroeste 0 849.8 0.9 72
2019-09-22 18:00:00 12.2 13 Oeste 21 Oeste 0 849.3 0.6 63
2019-09-22 17:00:00 11.7 15 Oeste 23 Noroeste 0 849.1 0.7 63
2019-09-22 16:00:00 11.9 8 Oeste 17 Oeste 0 848.9 0.8 54
2019-09-22 15:00:00 11.7 8 Oeste 23 Noroeste 0 848.7 0.7 53
2019-09-22 14:00:00 11.9 5 Sur 28 Oeste 0 848.4 0.8 58
2019-09-22 13:00:00 11.7 7 Oeste 24 Oeste 0 848.1 1.1 57
2019-09-22 12:00:00 10.5 15 Sudeste 29 Este 0 848 1.5 67
2019-09-22 11:00:00 8 16 Sudeste 24 Sudeste 0 847.6 2 80
2019-09-22 10:00:00 5.7 7 Este 14 Nordeste 0 847 2 90
2019-09-22 09:00:00 4.6 4 Sudeste 26 Oeste 0 846.5 1.7 88
2019-09-22 08:00:00 6.7 12 Sudoeste 28 Sudoeste 0 845.6 1.2 73
2019-09-22 07:00:00 3.6 4 Sudeste 13 Sudeste 0 845 0.7 91
2019-09-22 06:00:00 4.6 3 Sur 28 Este 0 844.8 1 87
2019-09-22 05:00:00 7.2 11 Sudeste 30 Sudoeste 0 844.4 0.7 79
2019-09-22 04:00:00 6.3 3 Sur 12 Este 0 844.3 0.8 84
2019-09-22 03:00:00 8.3 3 Nordeste 25 Sur 0 843.8 0.7 76
2019-09-22 02:00:00 10.9 11 Sudoeste 36 Oeste 1 843.7 0.4 69
2019-09-22 01:00:00 11.7 12 Sudoeste 48 Sur 2.6 843.5 0.1 80
2019-09-22 00:00:00 12.7 15 Sur 57 Sur 2 843.1 -0.2 83
2019-09-21 23:00:00 12.9 15 Sudeste 42 Sur 2 843.3 -0.1 82
2019-09-21 22:00:00 12.7 13 Sudeste 50 Sur 3 843.4 0.3 82
2019-09-21 21:00:00 13 18 Sudeste 52 Sur 2.2 843.3 -0.6 81
2019-09-21 20:00:00 13.2 29 Sur 62 Sur 0.6 843.4 -1 80
2019-09-21 19:00:00 13 14 Sur 51 Sur 1 843.1 -1.2 82
2019-09-21 18:00:00 13.5 20 Sur 54 Sur 0.2 843.9 -0.7 79
2019-09-21 17:00:00 12.7 13 Sur 43 Sur 0.2 844.4 -0.7 82
2019-09-21 16:00:00 12.9 18 Sur 63 Sur 0 844.3 -1.1 78
2019-09-21 15:00:00 12.3 23 Sur 60 Sur 0.2 844.6 -1.2 80
2019-09-21 14:00:00 12.5 25 Sur 64 Sudeste 0 845.1 -0.7 77
2019-09-21 13:00:00 12.2 21 Sur 55 Sur 0.2 845.4 -0.2 75
2019-09-21 12:00:00 11.6 18 Sur 48 Sur 0.2 845.8 0.6 76
2019-09-21 11:00:00 12 19 Sur 51 Sur 0 845.8 0.8 73
2019-09-21 10:00:00 11.2 18 Sur 49 Sudeste 0 845.6 -0.1 76
2019-09-21 09:00:00 11.4 18 Sur 56 Sudoeste 0 845.2 -0.5 73
2019-09-21 08:00:00 11.4 14 Sudeste 50 Sudoeste 0 845 -1.1 74
2019-09-21 07:00:00 11.9 17 Sur 48 Sur 0 845.7 -0.7 72
2019-09-21 06:00:00 12 20 Sur 52 Sur 0 845.7 -1 74
2019-09-21 05:00:00 12.2 19 Sur 46 Sur 0.2 846.1 -1 77
2019-09-21 04:00:00 12.5 15 Sur 41 Sur 0 846.4 -1.2 78
2019-09-21 03:00:00 12.5 9 Sudeste 44 Este 0 846.7 -1.4 76
2019-09-21 02:00:00 12.9 10 Sudeste 34 Sur 0 847.1 -1.4 74
2019-09-21 01:00:00 11.9 9 Este 22 Sudeste 0 847.6 -0.9 80
2019-09-21 00:00:00 12.6 14 Sudeste 36 Sur 0 848.1 -0.3 78
2019-09-20 23:00:00 13.6 10 Este 36 Sudeste 0 848.5 0.3 72
2019-09-20 22:00:00 13.4 9 Sudeste 42 Este 0 848.5 0 71
2019-09-20 21:00:00 15.9 19 Sudeste 36 Sudeste 0 848.4 0.1 60
2019-09-20 20:00:00 16.9 9 Sur 37 Sudoeste 0 848.2 -0.5 53
2019-09-20 19:00:00 17.3 12 Sudoeste 39 Este 0 848.5 -1.1 57
2019-09-20 18:00:00 17.9 23 Este 49 Este 0 848.3 -1.7 53
2019-09-20 17:00:00 19.2 17 Este 46 Sudeste 0 848.7 -1.5 52
2019-09-20 16:00:00 18.3 21 Este 37 Este 0 849.6 -0.7 61
2019-09-20 15:00:00 17.5 17 Este 48 Este 0 850 -1 63
2019-09-20 14:00:00 18 12 Sur 46 Sudeste 0 850.2 -0.8 60
2019-09-20 13:00:00 18.5 23 Sudeste 40 Este 0 850.3 -0.8 59
2019-09-20 12:00:00 17.2 11 Sur 38 Sudeste 0 851 0.1 63
2019-09-20 11:00:00 17 18 Sudeste 33 Sudeste 0 851 0.1 59
2019-09-20 10:00:00 15 12 Este 21 Este 0 851.1 0.3 72
2019-09-20 09:00:00 11.4 5 Este 8 Sudeste 0 850.9 -0.2 80
2019-09-20 08:00:00 9.3 3 Sudeste 9 Nordeste 0 850.9 -0.7 86
2019-09-20 07:00:00 9.6 3 Sudeste 10 Sudeste 0 850.8 -1.3 85
2019-09-20 06:00:00 10 5 Sudeste 10 Este 0 851.1 -1.3 83
2019-09-20 05:00:00 9.9 3 Sudeste 9 Sudeste 0 851.6 -0.9 83
2019-09-20 04:00:00 8 2 Sur 7 Sur 0 852.1 -0.7 89
2019-09-20 03:00:00 8.8 2 Oeste 6 Noroeste 0 852.4 -0.6 89
2019-09-20 02:00:00 9.3 2 Sur 6 Noroeste 0 852.5 -0.6 85
2019-09-20 01:00:00 10.4 6 Este 10 Este 0 852.8 -0.2 84
2019-09-20 00:00:00 9.4 0 Calma 5 Oeste 0 853 0.3 87
2019-09-19 23:00:00 9.7 3 Oeste 5 Oeste 0 853.1 0.6 84
2019-09-19 22:00:00 12 2 Noroeste 6 Sudeste 0 853 0.6 81
2019-09-19 21:00:00 14.2 3 Sudeste 13 Este 0 852.7 0.2 76
2019-09-19 20:00:00 14.9 8 Sur 17 Oeste 0 852.5 -0.3 76
2019-09-19 19:00:00 15.5 16 Oeste 23 Noroeste 0 852.4 -0.5 80
2019-09-19 18:00:00 16.4 14 Noroeste 19 Oeste 0 852.5 -0.7 76
2019-09-19 17:00:00 15.4 15 Oeste 24 Oeste 0 852.8 -0.8 76
2019-09-19 16:00:00 17 18 Oeste 25 Oeste 0 852.9 -0.7 62
2019-09-19 15:00:00 18.4 16 Oeste 23 Oeste 0 853.2 -0.7 48
2019-09-19 14:00:00 18.7 14 Oeste 23 Noroeste 0 853.6 -0.3 47
2019-09-19 13:00:00 17.7 15 Oeste 21 Oeste 0 853.6 0 51
2019-09-19 12:00:00 16.8 14 Oeste 19 Oeste 0 853.9 0.4 56
2019-09-19 11:00:00 15.6 13 Oeste 17 Oeste 0 853.9 0.6 64
2019-09-19 10:00:00 12.7 0 Calma 4 Noroeste 0 853.6 0.2 76
2019-09-19 09:00:00 8.5 3 Oeste 10 Noroeste 0 853.5 0.2 86
2019-09-19 08:00:00 6.6 5 Oeste 8 Noroeste 0 853.3 -0.2 86
2019-09-19 07:00:00 7 4 Oeste 8 Noroeste 0 853.4 -0.4 87
2019-09-19 06:00:00 8.2 7 Oeste 10 Oeste 0 853.3 -0.8 85
2019-09-19 05:00:00 8.9 6 Oeste 10 Noroeste 0 853.5 -0.7 85
2019-09-19 04:00:00 9.1 6 Oeste 9 Oeste 0 853.8 -0.7 88
2019-09-19 03:00:00 9.2 4 Oeste 10 Oeste 0 854.1 -0.5 87
2019-09-19 02:00:00 9 6 Oeste 9 Noroeste 0 854.2 -0.3 89
2019-09-19 01:00:00 9.1 6 Oeste 9 Oeste 0 854.5 0 88
2019-09-19 00:00:00 10.1 6 Noroeste 9 Sudoeste 0 854.6 0.5 87
2019-09-18 23:00:00 12.4 5 Oeste 13 Oeste 0 854.5 0.8 91
2019-09-18 22:00:00 12.4 10 Oeste 16 Oeste 0 854.5 1 89
2019-09-18 21:00:00 13.2 8 Oeste 15 Oeste 0 854.1 0.7 87
2019-09-18 20:00:00 14.5 9 Oeste 19 Oeste 0 853.7 0.2 86
2019-09-18 19:00:00 16.5 13 Noroeste 27 Oeste 0 853.5 -0.1 77
2019-09-18 18:00:00 17.1 17 Oeste 26 Oeste 0 853.4 -0.4 76
2019-09-18 17:00:00 16.3 16 Oeste 22 Oeste 0 853.5 -0.3 77
2019-09-18 16:00:00 17.4 13 Oeste 21 Noroeste 0 853.6 -0.4 67
2019-09-18 15:00:00 16.7 13 Noroeste 22 Oeste 0 853.8 0 69
2019-09-18 14:00:00 18.2 3 Sudeste 14 Este 0 853.8 0.3 58
2019-09-18 13:00:00 16.1 4 Este 10 Nordeste 0 854 0.9 73
2019-09-18 12:00:00 13.5 4 Norte 19 Este 0.6 853.8 1.1 84
2019-09-18 11:00:00 13.9 11 Oeste 15 Oeste 0 853.5 1.3 69
2019-09-18 10:00:00 12.7 5 Oeste 14 Oeste 0 853.1 0.9 72
2019-09-18 09:00:00 11 8 Noroeste 12 Oeste 0 852.7 0.3 83
2019-09-18 08:00:00 9.3 7 Oeste 10 Oeste 0 852.2 -0.4 86
2019-09-18 07:00:00 9.2 2 Oeste 7 Noroeste 0 852.2 -0.7 87
2019-09-18 06:00:00 9.9 3 Este 8 Sudeste 0 852.4 -1 86
2019-09-18 05:00:00 10.2 3 Sur 12 Este 0 852.6 -0.8 90
2019-09-18 04:00:00 10.5 4 Este 12 Este 0 852.9 -0.5 90
2019-09-18 03:00:00 10.8 9 Este 15 Este 0 853.4 0 91
2019-09-18 02:00:00 11.8 14 Nordeste 40 Sudeste 0 853.4 0 87
2019-09-18 01:00:00 12.1 4 Oeste 9 Oeste 0 853.4 -0.4 89
2019-09-18 00:00:00 12.4 6 Noroeste 14 Oeste 0 853.4 0 89
2019-09-17 23:00:00 11.3 4 Oeste 10 Noroeste 0 853.4 0.5 89
2019-09-17 22:00:00 11.5 9 Oeste 21 Sudoeste 0 853.8 0.5 89
2019-09-17 21:00:00 12.2 17 Oeste 30 Oeste 0 853.4 0.3 93
2019-09-15 18:00:00 19 5 Nordeste 34 Este 0 855.5 -1.2 52
2019-09-15 17:00:00 18.4 18 Este 37 Sudeste 0 856 -0.3 52
2019-09-15 16:00:00 21.5 14 Este 27 Este 0 855.8 -1.4 41
2019-09-15 15:00:00 19.7 15 Sudeste 32 Este 0 856.7 -0.7 47
2019-09-15 14:00:00 19.1 9 Sudeste 28 Este 0 856.3 -1 53
2019-09-15 13:00:00 17.7 15 Este 23 Este 0 857.2 0 62
2019-09-15 12:00:00 20.2 4 Nordeste 14 Este 0 857.4 0.4 49
2019-09-15 11:00:00 18.4 10 Este 15 Este 0 857.3 0.4 53
2019-09-15 10:00:00 15.4 4 Sudoeste 9 Noroeste 0 857.2 0.2 65
2019-09-15 09:00:00 11.3 4 Oeste 7 Noroeste 0 857 -0.3 78
2019-09-15 08:00:00 9.9 4 Noroeste 6 Noroeste 0 856.9 -0.8 80
2019-09-15 07:00:00 10.1 2 Oeste 6 Oeste 0 857 -0.7 76
2019-09-15 06:00:00 10.6 2 Sudoeste 10 Este 0 857.3 -0.7 77
2019-09-15 05:00:00 9.9 3 Noroeste 6 Sudeste 0 857.7 -0.7 81
2019-09-15 04:00:00 10.4 3 Sudeste 12 Sudeste 0 857.7 -0.9 78
2019-09-15 03:00:00 11.8 4 Este 24 Sudeste 0 858 -0.5 71
2019-09-15 02:00:00 13 8 Sudeste 27 Sudeste 0 858.4 -0.4 68
2019-09-15 01:00:00 13.9 14 Sudeste 26 Sudeste 0 858.6 -0.2 65
2019-09-15 00:00:00 11 3 Sudeste 5 Sudeste 0 858.5 0 83